Airfield :
LOGIN :

Register | Disclaimer

   EN    FR    IT 

 










Legend :    VFR   Marginal VFR   IFR   Intensive IFR   Very Intensive IFR
Visi :
Ceiling :
>= 8 km
>= 3000ft
5 to 8 km
1000 to 3000 ft
1500m to 5 km
500 to 1000 ft
800 to 1500m
200 to 500 ft
< 800m
< 200 ft
Symbols :   Thunderstorms  Fog  Heavy snow  Heavy precipitations  Wind > 20 kt
SIGMETs :     Misc.  Thunderstorms  Icing  Turbulence  Mountain Waves  Volcanic Ashes







- Airport Elevation : 1234 ft
- IATA code : LUX


ELLX - Luxembourg Findel

CURRENT METAR :
  • 161720Z 19005KT 150V230 CAVOK 27/11 Q1014 NOSIG

EXPIRED METARs :
  • 161650Z 21004KT 140V250 CAVOK 28/11 Q1014 NOSIG
  • 161620Z VRB05KT CAVOK 28/11 Q1015 NOSIG
  • 161550Z VRB04KT CAVOK 29/12 Q1015 NOSIG
  • 161520Z 22005KT 170V340 CAVOK 28/12 Q1015 NOSIG
  • 161450Z 22005KT 130V270 CAVOK 28/13 Q1015 NOSIG
  • 161420Z VRB04KT CAVOK 28/13 Q1016 NOSIG

TAF TAF ELLX
Valid from the 16 at 12:00 until the 17 at 18:00 UTC


161100Z 1612/1718 20006KT CAVOK
TEMPO 1612/1616 9999 SCT035
BECMG 1702/1705 33010KT BKN030
TEMPO 1702/1718 VRB15G25KT 4000 SHRA SCT010 BKN015TCU
PROB40
TEMPO 1702/1712 VRB20G30KT 2000 TSRA BKN020CB
ATIS : +352 4798 27300
Met : +352 4798 27010 / 27050
No reported NOTAMs for that airfield.



MET'MAP, your aeronautical weather chart ! - Copyright ORBIFLY December 2007 - Disclaimer

ORBIFLY MET'MAP TEAM :

Programming & Development : Alexandra Zaïnal
Concept & Development : Baudouin d'Aumeries
Co-Development & Prog : Marc-Olivier Méhu
Technical & hardware support : Manuel Goepfert

Contact : metmap@orbifly.com




SOURCES & CREDITS :

   NOAA